Ana Sayfa
METAR-TAF:

METAR-TAF

Havaalanları :

Loja, Ekvador

Enlem: 03-59-45S, Boylam: 079-22-19W, yükseklik: 1236 m

Güncel hava durumu gözlemi

Rapor saat 13:00 UTC de 46 dakika önce yapıldı.
Rüzgar batı/güneybatıdan 3 kt, güney ve kuzeybatı arasında değişken
Sıcaklık 19°C
Nem 88%
Basınç 1021 hPa
Görüş mesafesi 10 km veya daha fazla
2000 ft yükseklikte parçalı bulutlu
4000 ft yükseklikte parçalı bulutlu
10000 ft yükseklikte çok bulutlu

METAR: SECA 291300Z 24003KT 180V320 9999 SCT020 SCT040 OVC100 19/17 Q1021

Saat: 08:46 (13:46 UTC)


TAF: eksik

4.000'den fazla havaalanı için hava durumu gözlemleri ve tahminleri (METAR ve TAF raporları).

Kullanılabilir istasyonlar harita üzerinde sarı ve kırmızı noktalarla gösterilir.

İstasyonun adını görmek için fareyi noktanın üzerinde gezdirin.

Sonrasında hava gözlem ve tahminlerini görmek için tıklayın.

Haritayı değiştirmek için: yaklaştırmak için siyah artı işaretli yeşil düğmeye ve uzaklaştırmak için de eksi işaretli düğmeye hızla tıklayın; bitişik haritalar için yeşil okları kullanın.


METAR-TAF: